Time;durP1;ratioP1;P1;durP2;ratioP2;P2;SDS_P1;SDS_P2;PMS_P1;PMS_P2;Temp;Humidity;BMP_temperature;BMP_pressure;BME280_temperature;BME280_humidity;BME280_pressure;Samples;Min_cycle;Max_cycle;Signal;HPM_P1;HPM_P2
2024/02/23 05:32:54;;;;;;;0.10;0.10;;;6.70;81.70;;;;;;6098411;23;20029;-76
2024/02/23 05:35:19;;;;;;;0.10;0.10;;;6.60;81.90;;;;;;6099900;23;20010;-76
2024/02/23 05:37:45;;;;;;;0.10;0.10;;;6.60;82.00;;;;;;6101396;23;20405;-75
2024/02/23 05:40:11;;;;;;;0.10;0.10;;;6.60;82.10;;;;;;6101562;23;20006;-76
2024/02/23 05:42:37;;;;;;;0.10;0.10;;;6.50;82.30;;;;;;6100998;23;20006;-76
2024/02/23 05:45:04;;;;;;;0.10;0.10;;;6.60;82.20;;;;;;6101917;23;20437;-76
2024/02/23 05:47:30;;;;;;;0.10;0.10;;;6.60;82.20;;;;;;6101711;23;19998;-75
2024/02/23 05:49:56;;;;;;;0.10;0.10;;;6.60;82.00;;;;;;6101383;23;20331;-76
2024/02/23 05:52:21;;;;;;;0.10;0.10;;;6.60;82.00;;;;;;6075521;23;20013;-75
2024/02/23 05:54:47;;;;;;;0.10;0.10;;;6.60;82.10;;;;;;6076059;23;20009;-77
2024/02/23 05:57:13;;;;;;;0.10;0.10;;;6.60;82.10;;;;;;6099739;23;20032;-78
2024/02/23 05:59:38;;;;;;;0.10;0.10;;;6.70;82.10;;;;;;6100689;23;20034;-79
2024/02/23 06:02:04;;;;;;;0.10;0.10;;;6.70;82.00;;;;;;6100968;23;19998;-77
2024/02/23 06:04:30;;;;;;;0.10;0.10;;;6.70;82.00;;;;;;6101577;23;20097;-77
2024/02/23 06:06:55;;;;;;;0.10;0.10;;;6.70;82.00;;;;;;6101459;23;20068;-78
2024/02/23 06:09:21;;;;;;;0.10;0.10;;;6.70;81.90;;;;;;6098619;23;20471;-78
2024/02/23 06:11:47;;;;;;;0.20;0.20;;;6.70;81.90;;;;;;6075634;23;20018;-77
2024/02/23 06:14:13;;;;;;;0.10;0.10;;;6.70;82.00;;;;;;6102095;23;20002;-77
2024/02/23 06:16:40;;;;;;;0.10;0.10;;;6.70;82.00;;;;;;6076276;23;20466;-77
2024/02/23 06:19:06;;;;;;;0.10;0.10;;;6.70;82.20;;;;;;6075513;23;20010;-78
2024/02/23 06:21:32;;;;;;;0.10;0.10;;;6.70;82.20;;;;;;6101680;23;20007;-77
2024/02/23 06:23:58;;;;;;;0.17;0.17;;;6.60;82.40;;;;;;6075800;23;20010;-81
2024/02/23 06:26:23;;;;;;;0.10;0.10;;;6.70;82.50;;;;;;6101354;23;20012;-80
2024/02/23 06:28:49;;;;;;;0.10;0.10;;;6.60;82.50;;;;;;6100643;23;20078;-78
2024/02/23 06:31:15;;;;;;;0.10;0.10;;;6.60;82.60;;;;;;6087684;23;20456;-77
2024/02/23 06:33:40;;;;;;;0.10;0.10;;;6.60;82.70;;;;;;6070152;23;20499;-83
2024/02/23 06:36:07;;;;;;;0.10;0.10;;;6.60;82.70;;;;;;6046711;23;20011;-79
2024/02/23 06:38:33;;;;;;;0.10;0.10;;;6.60;82.80;;;;;;6072084;23;20010;-79
2024/02/23 06:40:59;;;;;;;0.10;0.10;;;6.60;82.70;;;;;;6072803;23;20003;-75
2024/02/23 06:43:25;;;;;;;0.10;0.10;;;6.50;82.90;;;;;;6072008;23;20010;-75
2024/02/23 06:45:51;;;;;;;0.10;0.10;;;6.50;82.70;;;;;;6071353;23;20074;-75
2024/02/23 06:48:16;;;;;;;0.10;0.10;;;6.50;82.60;;;;;;6070653;23;19998;-76
2024/02/23 06:50:42;;;;;;;0.10;0.10;;;6.50;82.50;;;;;;6071958;23;20130;-75
2024/02/23 06:53:08;;;;;;;0.10;0.10;;;6.50;82.50;;;;;;6045811;23;20026;-75
2024/02/23 06:55:37;;;;;;;0.10;0.10;;;6.50;82.30;;;;;;6071617;23;20003;-75
2024/02/23 06:58:04;;;;;;;0.10;0.10;;;6.50;82.20;;;;;;6071577;23;20007;-75
2024/02/23 07:00:30;;;;;;;0.10;0.10;;;6.50;82.10;;;;;;6047127;23;20062;-75
2024/02/23 07:02:58;;;;;;;0.10;0.10;;;6.50;81.90;;;;;;6072137;23;20010;-75
2024/02/23 07:05:24;;;;;;;0.10;0.10;;;6.50;81.80;;;;;;6070146;23;20014;-75
2024/02/23 07:07:50;;;;;;;0.10;0.10;;;6.50;81.60;;;;;;6046627;23;20093;-75
2024/02/23 07:10:17;;;;;;;0.17;0.17;;;6.40;81.70;;;;;;6071902;23;20010;-75
2024/02/23 07:12:44;;;;;;;0.15;0.15;;;6.50;81.60;;;;;;6071837;23;20011;-76
2024/02/23 07:15:10;;;;;;;0.10;0.10;;;6.50;81.50;;;;;;6072109;23;20035;-75
2024/02/23 07:17:35;;;;;;;0.17;0.17;;;6.50;81.40;;;;;;6072357;23;20063;-76
2024/02/23 07:20:05;;;;;;;0.10;0.10;;;6.60;81.20;;;;;;6071541;23;20007;-76
2024/02/23 07:22:31;;;;;;;0.10;0.10;;;6.60;81.10;;;;;;6071181;23;20007;-76
2024/02/23 07:24:57;;;;;;;0.10;0.10;;;6.60;81.10;;;;;;6071457;23;20329;-76
2024/02/23 07:27:22;;;;;;;0.10;0.10;;;6.70;81.10;;;;;;6045309;23;20030;-76
2024/02/23 07:29:48;;;;;;;0.10;0.10;;;6.70;80.90;;;;;;6070705;23;20530;-75
2024/02/23 07:32:14;;;;;;;0.10;0.10;;;6.70;80.80;;;;;;6073513;23;20022;-75
2024/02/23 07:34:40;;;;;;;0.10;0.10;;;6.70;80.70;;;;;;6070519;23;20007;-76
2024/02/23 07:37:05;;;;;;;0.10;0.10;;;6.70;80.40;;;;;;6070861;23;20348;-76
2024/02/23 07:39:31;;;;;;;0.13;0.13;;;6.70;80.70;;;;;;6044897;23;20017;-76
2024/02/23 07:41:57;;;;;;;0.10;0.10;;;6.70;80.70;;;;;;6046165;23;20003;-75
2024/02/23 07:44:23;;;;;;;0.17;0.17;;;6.70;80.60;;;;;;6071958;23;20038;-75
2024/02/23 07:46:48;;;;;;;0.10;0.10;;;6.80;80.30;;;;;;6071726;23;20009;-75
2024/02/23 07:49:14;;;;;;;0.10;0.10;;;6.90;80.20;;;;;;6071584;23;20455;-75
2024/02/23 07:51:40;;;;;;;0.10;0.10;;;7.00;80.30;;;;;;6071863;23;20440;-75
2024/02/23 07:54:05;;;;;;;0.10;0.10;;;7.20;79.90;;;;;;6071436;23;20007;-75
2024/02/23 07:56:31;;;;;;;0.10;0.10;;;7.30;79.70;;;;;;6072015;23;20003;-75
2024/02/23 07:58:57;;;;;;;0.10;0.10;;;7.40;79.50;;;;;;6071233;23;20003;-75
2024/02/23 08:01:23;;;;;;;0.10;0.10;;;7.40;79.20;;;;;;6071943;23;20006;-78
2024/02/23 08:03:48;;;;;;;0.10;0.10;;;7.30;79.10;;;;;;6071860;23;19999;-76
2024/02/23 08:06:14;;;;;;;0.10;0.10;;;7.40;79.10;;;;;;6071690;23;20086;-76
2024/02/23 08:08:40;;;;;;;0.10;0.10;;;7.40;79.30;;;;;;6070524;23;20011;-76
2024/02/23 08:11:05;;;;;;;0.20;0.20;;;7.60;79.00;;;;;;6071730;23;20003;-76
2024/02/23 08:13:31;;;;;;;0.20;0.20;;;7.70;78.50;;;;;;6071649;23;20501;-76
2024/02/23 08:15:57;;;;;;;0.20;0.20;;;8.00;78.10;;;;;;6072093;23;20034;-76
2024/02/23 08:18:23;;;;;;;0.10;0.10;;;8.20;77.60;;;;;;6071391;23;20003;-76
2024/02/23 08:20:49;;;;;;;0.10;0.10;;;8.20;77.00;;;;;;6071519;23;19999;-76
2024/02/23 08:23:15;;;;;;;0.10;0.10;;;8.10;77.60;;;;;;6046413;23;20404;-76
2024/02/23 08:25:41;;;;;;;0.10;0.10;;;8.00;77.60;;;;;;6046385;23;20003;-76
2024/02/23 08:28:06;;;;;;;0.20;0.20;;;7.90;78.00;;;;;;6069385;23;20003;-76
2024/02/23 08:30:32;;;;;;;0.20;0.20;;;7.90;77.90;;;;;;6071831;23;20317;-77
2024/02/23 08:32:58;;;;;;;0.30;0.30;;;8.10;78.00;;;;;;6073377;23;20043;-77
2024/02/23 08:35:24;;;;;;;0.30;0.30;;;8.50;77.60;;;;;;6074877;23;20007;-77
2024/02/23 08:37:50;;;;;;;0.20;0.20;;;9.00;76.20;;;;;;6075202;23;20009;-77
2024/02/23 08:40:15;;;;;;;0.20;0.20;;;9.10;75.50;;;;;;6074692;23;20451;-77
2024/02/23 08:42:42;;;;;;;0.10;0.10;;;9.10;75.30;;;;;;6074515;23;20025;-77
2024/02/23 08:45:09;;;;;;;0.20;0.20;;;9.00;74.90;;;;;;6073472;23;20059;-78
2024/02/23 08:47:35;;;;;;;0.20;0.20;;;9.00;75.00;;;;;;6074477;23;20077;-76
2024/02/23 08:50:01;;;;;;;0.20;0.20;;;9.10;74.80;;;;;;6075330;23;20002;-75
2024/02/23 08:52:27;;;;;;;0.10;0.10;;;9.10;74.80;;;;;;6075148;23;20451;-76
2024/02/23 08:54:52;;;;;;;0.13;0.13;;;9.10;74.70;;;;;;6072931;23;20034;-76
2024/02/23 08:57:19;;;;;;;0.10;0.10;;;9.00;74.40;;;;;;6049881;23;20082;-77
2024/02/23 08:59:49;;;;;;;0.20;0.20;;;9.00;74.50;;;;;;6074437;23;20002;-76
2024/02/23 09:02:15;;;;;;;0.20;0.20;;;9.00;74.50;;;;;;6073907;23;20428;-77
2024/02/23 09:04:41;;;;;;;0.20;0.20;;;9.10;74.30;;;;;;6074820;23;20073;-76
2024/02/23 09:07:06;;;;;;;0.20;0.20;;;9.10;74.00;;;;;;6074881;23;20050;-76
2024/02/23 09:09:32;;;;;;;0.30;0.30;;;9.20;74.30;;;;;;6074078;23;20086;-75
2024/02/23 09:11:58;;;;;;;0.30;0.30;;;9.40;74.00;;;;;;6075109;23;20458;-76
2024/02/23 09:14:25;;;;;;;0.30;0.30;;;9.60;73.50;;;;;;6074174;23;20137;-76
2024/02/23 09:16:51;;;;;;;0.30;0.30;;;9.70;73.00;;;;;;6074522;23;20384;-76
2024/02/23 09:19:18;;;;;;;0.30;0.30;;;9.80;72.80;;;;;;6048612;23;20441;-76
2024/02/23 09:21:44;;;;;;;0.30;0.30;;;9.80;72.20;;;;;;6073237;23;20034;-77
2024/02/23 09:24:09;;;;;;;0.30;0.30;;;9.80;72.20;;;;;;6074260;23;20002;-76
2024/02/23 09:26:35;;;;;;;0.20;0.20;;;9.80;72.20;;;;;;6074689;23;19999;-76
2024/02/23 09:29:00;;;;;;;0.20;0.20;;;9.80;71.80;;;;;;6069831;23;20010;-76
2024/02/23 09:31:28;;;;;;;0.10;0.10;;;9.90;71.90;;;;;;6065165;23;20026;-76
2024/02/23 09:33:55;;;;;;;0.10;0.10;;;9.80;72.00;;;;;;6101215;23;20006;-77
2024/02/23 09:36:20;;;;;;;0.10;0.10;;;9.70;72.40;;;;;;6100779;23;20007;-76
2024/02/23 09:38:48;;;;;;;0.10;0.10;;;9.50;72.60;;;;;;6101542;23;20042;-77
2024/02/23 09:41:21;;;;;;;0.10;0.10;;;9.40;72.90;;;;;;6099002;23;20491;-77
2024/02/23 09:43:48;;;;;;;0.10;0.10;;;9.20;73.20;;;;;;6096182;23;20070;-77
2024/02/23 09:46:15;;;;;;;0.10;0.10;;;9.20;73.70;;;;;;6101298;23;20497;-77
2024/02/23 09:48:44;;;;;;;0.20;0.20;;;9.30;73.60;;;;;;6051807;23;20010;-77
2024/02/23 09:51:11;;;;;;;0.20;0.20;;;9.40;73.90;;;;;;6101810;23;20061;-77
2024/02/23 09:53:38;;;;;;;0.10;0.10;;;9.40;73.40;;;;;;6099934;23;20017;-77
2024/02/23 09:56:05;;;;;;;0.10;0.10;;;9.40;73.50;;;;;;6099070;23;20006;-77
2024/02/23 09:58:35;;;;;;;0.10;0.10;;;9.40;73.60;;;;;;6100434;23;20006;-77
2024/02/23 10:01:02;;;;;;;0.10;0.10;;;9.30;73.90;;;;;;6099748;23;20038;-77
2024/02/23 10:03:30;;;;;;;0.10;0.10;;;9.30;74.10;;;;;;6095458;23;20011;-77
2024/02/23 10:05:56;;;;;;;0.20;0.20;;;9.30;73.60;;;;;;6101197;23;20395;-77
2024/02/23 10:08:22;;;;;;;0.40;0.40;;;9.50;74.10;;;;;;6099917;23;20085;-77
2024/02/23 10:10:50;;;;;;;0.20;0.20;;;9.70;73.40;;;;;;6101607;23;20002;-77
2024/02/23 10:13:24;;;;;;;0.10;0.10;;;9.90;73.00;;;;;;6100692;23;20327;-79
2024/02/23 10:15:51;;;;;;;0.10;0.10;;;10.00;72.50;;;;;;6101456;23;20113;-78
2024/02/23 10:18:17;;;;;;;0.10;0.10;;;9.80;71.90;;;;;;6100460;23;20030;-80
2024/02/23 10:20:43;;;;;;;0.10;0.10;;;9.80;72.30;;;;;;6099775;23;20003;-79
2024/02/23 10:23:09;;;;;;;0.10;0.10;;;9.70;72.20;;;;;;6100788;23;20041;-79
2024/02/23 10:25:35;;;;;;;0.10;0.10;;;9.60;72.40;;;;;;6101328;23;20009;-79
2024/02/23 10:28:05;;;;;;;0.10;0.10;;;9.50;72.70;;;;;;6100156;23;20003;-83
2024/02/23 10:30:31;;;;;;;0.10;0.10;;;9.50;72.80;;;;;;6099246;23;20011;-78
2024/02/23 10:32:58;;;;;;;0.10;0.10;;;9.40;72.70;;;;;;6072581;23;20058;-79
2024/02/23 10:35:24;;;;;;;0.10;0.10;;;9.30;72.90;;;;;;6071287;23;20003;-77
2024/02/23 10:37:52;;;;;;;0.10;0.10;;;9.30;73.10;;;;;;6045429;23;20006;-78
2024/02/23 10:40:19;;;;;;;0.10;0.10;;;9.40;72.90;;;;;;6042913;23;20014;-80
2024/02/23 10:42:51;;;;;;;0.10;0.10;;;9.50;72.60;;;;;;6046131;23;20030;-79
2024/02/23 10:45:24;;;;;;;0.10;0.10;;;9.70;72.40;;;;;;6069277;23;20090;-78
2024/02/23 10:47:51;;;;;;;0.20;0.20;;;9.80;71.80;;;;;;6044385;23;20428;-79
2024/02/23 10:50:19;;;;;;;0.10;0.10;;;9.80;70.90;;;;;;6069128;23;20009;-78
2024/02/23 10:52:46;;;;;;;0.10;0.10;;;9.80;71.30;;;;;;6069669;23;20367;-78
2024/02/23 10:55:14;;;;;;;0.10;0.10;;;9.90;70.80;;;;;;6070501;23;20011;-78
2024/02/23 10:57:39;;;;;;;0.10;0.10;;;9.90;70.80;;;;;;6068613;23;20062;-78
2024/02/23 11:00:09;;;;;;;0.10;0.10;;;10.00;70.20;;;;;;6069196;23;20042;-78
2024/02/23 11:02:50;;;;;;;0.10;0.10;;;10.20;70.30;;;;;;6070410;23;19999;-81
2024/02/23 11:05:16;;;;;;;0.10;0.10;;;10.20;69.90;;;;;;6046030;23;20014;-79
2024/02/23 11:07:42;;;;;;;0.20;0.20;;;10.30;70.00;;;;;;6047224;23;20010;-80
2024/02/23 11:10:09;;;;;;;0.10;0.10;;;10.40;69.20;;;;;;6072214;23;20011;-78
2024/02/23 11:12:35;;;;;;;0.10;0.10;;;10.50;69.20;;;;;;6071229;23;20011;-79
2024/02/23 11:15:02;;;;;;;0.10;0.10;;;10.60;69.00;;;;;;6071683;23;20014;-78
2024/02/23 11:17:30;;;;;;;0.10;0.10;;;10.50;68.40;;;;;;6071716;23;20034;-78
2024/02/23 11:19:57;;;;;;;0.10;0.10;;;10.60;68.70;;;;;;6071737;23;20014;-76
2024/02/23 11:22:26;;;;;;;0.20;0.20;;;10.60;68.80;;;;;;6072019;23;20007;-77
2024/02/23 11:24:52;;;;;;;0.10;0.10;;;10.60;68.60;;;;;;6072133;23;19999;-78
2024/02/23 11:27:18;;;;;;;0.10;0.10;;;10.50;67.80;;;;;;6045463;23;20100;-76
2024/02/23 11:29:46;;;;;;;0.20;0.20;;;10.60;68.00;;;;;;6071807;23;20057;-78
2024/02/23 11:32:17;;;;;;;0.20;0.20;;;10.70;68.20;;;;;;6083341;23;20029;-77
2024/02/23 11:34:56;;;;;;;0.20;0.20;;;10.80;68.00;;;;;;6100335;23;20003;-77
2024/02/23 11:37:22;;;;;;;0.20;0.20;;;11.10;67.40;;;;;;6099205;23;20012;-77
2024/02/23 11:39:49;;;;;;;0.20;0.20;;;11.50;67.50;;;;;;6101242;23;20010;-76
2024/02/23 11:42:15;;;;;;;0.10;0.10;;;11.60;65.90;;;;;;6099595;23;20006;-76
2024/02/23 11:44:41;;;;;;;0.10;0.10;;;11.60;66.40;;;;;;6100083;23;19999;-75
2024/02/23 11:47:07;;;;;;;0.10;0.10;;;11.40;66.20;;;;;;6100677;23;20009;-75
2024/02/23 11:49:33;;;;;;;0.10;0.10;;;11.30;65.60;;;;;;6101515;23;20009;-78
2024/02/23 11:51:59;;;;;;;0.10;0.10;;;11.10;65.80;;;;;;6100278;23;20007;-76
2024/02/23 11:54:25;;;;;;;0.10;0.10;;;10.90;66.30;;;;;;6100726;23;20013;-76
2024/02/23 11:56:52;;;;;;;0.10;0.10;;;10.80;66.40;;;;;;6100373;23;20037;-74
2024/02/23 11:59:23;;;;;;;0.10;0.10;;;10.80;66.90;;;;;;6100876;23;20041;-77
2024/02/23 12:01:48;;;;;;;0.10;0.10;;;10.80;67.00;;;;;;6098773;23;20061;-76
2024/02/23 12:04:15;;;;;;;0.10;0.10;;;10.80;66.80;;;;;;6100649;23;20034;-77
2024/02/23 12:06:42;;;;;;;0.10;0.10;;;10.80;66.90;;;;;;6099133;23;20058;-78
2024/02/23 12:09:08;;;;;;;0.10;0.10;;;10.70;67.30;;;;;;6101043;23;20403;-79
2024/02/23 12:11:34;;;;;;;0.10;0.10;;;10.80;67.40;;;;;;6100133;23;20572;-80
2024/02/23 12:14:02;;;;;;;0.13;0.13;;;10.80;67.60;;;;;;6100668;23;20002;-77
2024/02/23 12:16:28;;;;;;;0.10;0.10;;;10.90;67.50;;;;;;6100289;23;20009;-77
2024/02/23 12:18:58;;;;;;;0.10;0.10;;;11.00;67.80;;;;;;6098125;23;20014;-77
2024/02/23 12:21:25;;;;;;;0.10;0.10;;;11.00;66.60;;;;;;6123326;23;20400;-76
2024/02/23 12:23:50;;;;;;;0.10;0.10;;;10.80;66.30;;;;;;6098880;23;20003;-75
2024/02/23 12:26:18;;;;;;;0.20;0.20;;;10.70;66.50;;;;;;6099554;23;20087;-75
2024/02/23 12:28:44;;;;;;;0.20;0.20;;;10.70;66.80;;;;;;6098714;23;20097;-75
2024/02/23 12:31:09;;;;;;;0.10;0.10;;;10.70;66.90;;;;;;6083323;23;20355;-75
2024/02/23 12:33:37;;;;;;;0.10;0.10;;;10.70;66.10;;;;;;6069823;23;20054;-76
2024/02/23 12:36:10;;;;;;;0.10;0.10;;;10.80;65.80;;;;;;6045340;23;20007;-80
2024/02/23 12:38:36;;;;;;;0.20;0.20;;;10.80;65.40;;;;;;6044815;23;20423;-75
2024/02/23 12:41:02;;;;;;;0.15;0.15;;;10.80;65.00;;;;;;6045296;23;20008;-75
2024/02/23 12:43:29;;;;;;;0.10;0.10;;;10.80;64.90;;;;;;6070812;23;20006;-75
2024/02/23 12:45:56;;;;;;;0.10;0.10;;;10.80;64.20;;;;;;6045369;23;20013;-74
2024/02/23 12:48:22;;;;;;;0.20;0.20;;;11.00;65.00;;;;;;6045113;23;20003;-75
2024/02/23 12:50:48;;;;;;;0.10;0.10;;;11.20;64.40;;;;;;6070340;23;20010;-75
2024/02/23 12:53:36;;;;;;;0.10;0.10;;;11.50;64.30;;;;;;6044393;23;20082;-76
2024/02/23 12:56:09;;;;;;;0.10;0.10;;;11.70;63.80;;;;;;6071129;23;20011;-79
2024/02/23 12:58:39;;;;;;;0.20;0.20;;;11.60;64.10;;;;;;6070999;23;20336;-77
2024/02/23 13:01:06;;;;;;;0.10;0.10;;;11.60;63.70;;;;;;6044398;23;20007;-75
2024/02/23 13:03:33;;;;;;;0.17;0.17;;;11.40;64.20;;;;;;6070639;23;20003;-76
2024/02/23 13:05:59;;;;;;;0.15;0.15;;;11.40;64.70;;;;;;6070743;23;20009;-76
2024/02/23 13:08:26;;;;;;;0.20;0.20;;;11.50;65.10;;;;;;6045494;23;20032;-82
2024/02/23 13:10:53;;;;;;;0.10;0.10;;;11.70;63.90;;;;;;6046570;23;20061;-79
2024/02/23 13:13:19;;;;;;;0.10;0.10;;;11.70;63.10;;;;;;6070787;23;20010;-81
2024/02/23 13:15:46;;;;;;;0.10;0.10;;;11.50;62.20;;;;;;6070575;23;20003;-78
2024/02/23 13:18:12;;;;;;;0.15;0.15;;;11.50;63.30;;;;;;6072834;23;20773;-78
2024/02/23 13:20:38;;;;;;;0.10;0.10;;;11.60;63.80;;;;;;6048031;23;20011;-78
2024/02/23 13:23:08;;;;;;;0.10;0.10;;;11.50;62.60;;;;;;6072979;23;20336;-80
2024/02/23 13:25:36;;;;;;;0.20;0.20;;;11.50;62.50;;;;;;6046858;23;20007;-78
2024/02/23 13:28:03;;;;;;;0.20;0.20;;;11.40;62.90;;;;;;6047236;23;20011;-78
2024/02/23 13:30:28;;;;;;;0.10;0.10;;;11.30;62.70;;;;;;6072716;23;20003;-78
2024/02/23 13:32:54;;;;;;;0.10;0.10;;;11.20;63.60;;;;;;6071775;23;20066;-78
2024/02/23 13:35:20;;;;;;;0.20;0.20;;;11.20;64.10;;;;;;6072643;23;20030;-82
2024/02/23 13:37:45;;;;;;;0.10;0.10;;;11.10;63.30;;;;;;6072948;23;20087;-79
2024/02/23 13:40:11;;;;;;;0.10;0.10;;;11.00;63.60;;;;;;6071162;23;20046;-78
2024/02/23 13:42:38;;;;;;;0.10;0.10;;;10.90;64.10;;;;;;6046064;23;20027;-81
2024/02/23 13:45:08;;;;;;;0.13;0.13;;;10.80;64.70;;;;;;6038993;23;20026;-77
2024/02/23 13:47:35;;;;;;;0.10;0.10;;;10.70;64.80;;;;;;6070725;23;20014;-77
2024/02/23 13:50:01;;;;;;;0.10;0.10;;;10.60;64.80;;;;;;6072304;23;20323;-77
2024/02/23 13:52:27;;;;;;;0.10;0.10;;;10.60;65.50;;;;;;6068464;23;20003;-78
2024/02/23 13:54:53;;;;;;;0.10;0.10;;;10.50;65.30;;;;;;6071842;23;20489;-78
2024/02/23 13:57:18;;;;;;;0.10;0.10;;;10.30;65.30;;;;;;6046225;23;20038;-77
2024/02/23 13:59:44;;;;;;;0.10;0.10;;;10.20;65.80;;;;;;6069671;23;20089;-77
2024/02/23 14:02:10;;;;;;;0.10;0.10;;;10.00;66.40;;;;;;6070585;23;20077;-76
2024/02/23 14:04:36;;;;;;;0.10;0.10;;;9.90;66.90;;;;;;6069734;23;20269;-76
2024/02/23 14:07:01;;;;;;;0.10;0.10;;;9.80;67.90;;;;;;6047037;23;20007;-76
2024/02/23 14:09:27;;;;;;;0.10;0.10;;;9.80;67.60;;;;;;6072132;23;20017;-76
2024/02/23 14:11:53;;;;;;;0.10;0.10;;;9.70;67.90;;;;;;6072826;23;20806;-76
2024/02/23 14:14:19;;;;;;;0.10;0.10;;;9.70;68.00;;;;;;6072073;23;20458;-76
2024/02/23 14:16:45;;;;;;;0.10;0.10;;;9.60;68.50;;;;;;6072798;23;20007;-76
2024/02/23 14:19:11;;;;;;;0.10;0.10;;;9.60;68.80;;;;;;6071357;23;20021;-76
2024/02/23 14:21:37;;;;;;;0.10;0.10;;;9.50;69.40;;;;;;6046962;23;20347;-76
2024/02/23 14:24:04;;;;;;;0.10;0.10;;;9.50;70.20;;;;;;6072952;23;20428;-75
2024/02/23 14:26:29;;;;;;;0.10;0.10;;;9.50;70.10;;;;;;6072373;23;20017;-76
2024/02/23 14:28:55;;;;;;;0.10;0.10;;;9.40;70.50;;;;;;6072313;23;20027;-76
2024/02/23 14:31:21;;;;;;;0.10;0.10;;;9.40;71.00;;;;;;6088729;23;20025;-76
2024/02/23 14:33:50;;;;;;;0.10;0.10;;;9.50;71.20;;;;;;6100849;23;20014;-76
2024/02/23 14:36:16;;;;;;;0.10;0.10;;;9.40;71.20;;;;;;6101930;23;20007;-76
2024/02/23 14:38:42;;;;;;;0.10;0.10;;;9.30;70.80;;;;;;6101032;23;20342;-76
2024/02/23 14:41:09;;;;;;;0.10;0.10;;;9.40;70.30;;;;;;6101643;23;20002;-76
2024/02/23 14:43:35;;;;;;;0.10;0.10;;;9.30;70.40;;;;;;6101032;23;20003;-76
2024/02/23 14:46:01;;;;;;;0.10;0.10;;;9.20;68.90;;;;;;6101454;23;20005;-76
2024/02/23 14:48:26;;;;;;;0.10;0.10;;;9.20;68.80;;;;;;6101384;23;20423;-76
2024/02/23 14:50:52;;;;;;;0.10;0.10;;;9.20;68.50;;;;;;6101060;23;20006;-76
2024/02/23 14:53:18;;;;;;;0.20;0.20;;;9.30;67.90;;;;;;6101012;23;20434;-76
2024/02/23 14:55:43;;;;;;;0.20;0.20;;;9.50;67.40;;;;;;6101265;23;20002;-76
2024/02/23 14:58:09;;;;;;;0.20;0.20;;;10.10;67.40;;;;;;6101317;23;20316;-76
2024/02/23 15:00:35;;;;;;;0.10;0.10;;;10.40;65.30;;;;;;6099086;23;20016;-76
2024/02/23 15:03:00;;;;;;;0.10;0.10;;;10.30;63.70;;;;;;6101298;23;20367;-76
2024/02/23 15:05:26;;;;;;;0.10;0.10;;;10.10;62.90;;;;;;6099630;23;20045;-76
2024/02/23 15:07:52;;;;;;;0.10;0.10;;;10.00;63.60;;;;;;6100817;23;20513;-76
2024/02/23 15:10:18;;;;;;;0.10;0.10;;;9.90;63.30;;;;;;6099657;23;20007;-76
2024/02/23 15:12:44;;;;;;;0.10;0.10;;;9.80;64.20;;;;;;6101222;23;20446;-76
2024/02/23 15:15:10;;;;;;;0.10;0.10;;;9.80;64.80;;;;;;6101340;23;20010;-76
2024/02/23 15:17:35;;;;;;;0.10;0.10;;;9.80;64.50;;;;;;6099473;23;20042;-76
2024/02/23 15:20:01;;;;;;;0.10;0.10;;;9.70;64.60;;;;;;6100986;23;20610;-76
2024/02/23 15:22:28;;;;;;;0.10;0.10;;;9.70;65.20;;;;;;6099672;23;20088;-76
2024/02/23 15:24:54;;;;;;;0.10;0.10;;;9.60;65.20;;;;;;6101282;23;20002;-76
2024/02/23 15:27:20;;;;;;;0.10;0.10;;;9.50;65.30;;;;;;6100515;23;20069;-76
2024/02/23 15:29:46;;;;;;;0.10;0.10;;;9.20;66.00;;;;;;6099371;23;20038;-76
2024/02/23 15:32:14;;;;;;;0.10;0.10;;;8.90;67.20;;;;;;6079894;23;20452;-76
2024/02/23 15:34:40;;;;;;;0.10;0.10;;;8.80;68.40;;;;;;6072013;23;20014;-76
2024/02/23 15:37:07;;;;;;;0.10;0.10;;;8.80;68.60;;;;;;6071898;23;20007;-76
2024/02/23 15:39:33;;;;;;;0.10;0.10;;;8.70;69.80;;;;;;6071951;23;20031;-76
2024/02/23 15:41:58;;;;;;;0.10;0.10;;;8.70;70.20;;;;;;6071525;23;20650;-76
2024/02/23 15:44:24;;;;;;;0.10;0.10;;;8.70;71.10;;;;;;6071786;23;20487;-76
2024/02/23 15:46:49;;;;;;;0.10;0.10;;;8.60;72.80;;;;;;6070736;23;20003;-76
2024/02/23 15:49:18;;;;;;;0.10;0.10;;;8.50;73.10;;;;;;6071818;23;20007;-76
2024/02/23 15:51:45;;;;;;;0.10;0.10;;;8.50;73.30;;;;;;6071747;23;20336;-76
2024/02/23 15:54:10;;;;;;;0.10;0.10;;;8.40;73.80;;;;;;6071994;23;20085;-76
2024/02/23 15:56:37;;;;;;;0.10;0.10;;;8.30;73.60;;;;;;6072042;23;20007;-76
2024/02/23 15:59:07;;;;;;;0.10;0.10;;;8.40;73.80;;;;;;6071709;23;20054;-76
2024/02/23 16:01:33;;;;;;;0.10;0.10;;;8.60;73.90;;;;;;6046224;23;20081;-76
2024/02/23 16:03:59;;;;;;;0.10;0.10;;;8.90;74.10;;;;;;6072030;23;19999;-76
2024/02/23 16:06:25;;;;;;;0.10;0.10;;;9.10;73.80;;;;;;6072137;23;20026;-76
2024/02/23 16:08:52;;;;;;;0.10;0.10;;;9.10;73.00;;;;;;6071586;23;20002;-76
2024/02/23 16:11:18;;;;;;;0.10;0.10;;;9.00;73.40;;;;;;6071853;23;20006;-76
2024/02/23 16:13:43;;;;;;;0.10;0.10;;;8.80;73.40;;;;;;6071484;23;20007;-76
2024/02/23 16:16:14;;;;;;;0.10;0.10;;;8.70;73.50;;;;;;6070154;23;20018;-76
2024/02/23 16:18:39;;;;;;;0.10;0.10;;;8.60;73.70;;;;;;6072026;23;20007;-74
2024/02/23 16:21:06;;;;;;;0.10;0.10;;;8.60;74.10;;;;;;6070239;23;20007;-74
2024/02/23 16:23:31;;;;;;;0.10;0.10;;;8.50;74.40;;;;;;6071444;23;19999;-74
2024/02/23 16:25:57;;;;;;;0.15;0.15;;;8.50;74.20;;;;;;6046719;23;20006;-74
2024/02/23 16:28:22;;;;;;;0.10;0.10;;;8.60;74.40;;;;;;6071458;23;20026;-73
2024/02/23 16:30:48;;;;;;;0.10;0.10;;;8.70;74.40;;;;;;6071597;23;20094;-74
2024/02/23 16:33:15;;;;;;;0.10;0.10;;;8.70;74.70;;;;;;6071587;23;20792;-74
2024/02/23 16:35:40;;;;;;;0.10;0.10;;;8.70;74.40;;;;;;6071504;23;20042;-74
2024/02/23 16:38:06;;;;;;;0.10;0.10;;;8.70;74.30;;;;;;6069897;23;20014;-74
2024/02/23 16:40:32;;;;;;;0.10;0.10;;;8.60;74.20;;;;;;6046223;23;20058;-74
2024/02/23 16:42:59;;;;;;;0.10;0.10;;;8.50;74.40;;;;;;6071258;23;20003;-74
2024/02/23 16:45:26;;;;;;;0.10;0.10;;;8.40;74.50;;;;;;6071588;23;20006;-74
2024/02/23 16:47:52;;;;;;;0.10;0.10;;;8.40;74.80;;;;;;6071732;23;19998;-74
2024/02/23 16:50:19;;;;;;;0.10;0.10;;;8.30;74.90;;;;;;6045969;23;20014;-74
2024/02/23 16:52:45;;;;;;;0.10;0.10;;;8.20;75.00;;;;;;6073003;23;20011;-74
2024/02/23 16:55:11;;;;;;;0.10;0.10;;;8.00;75.40;;;;;;6073517;23;20034;-75
2024/02/23 16:57:36;;;;;;;0.10;0.10;;;8.00;75.60;;;;;;6073469;23;20007;-74
2024/02/23 17:00:03;;;;;;;0.10;0.10;;;7.90;75.50;;;;;;6073659;23;20030;-74
2024/02/23 17:02:28;;;;;;;0.10;0.10;;;7.80;75.60;;;;;;6047547;23;20007;-74
2024/02/23 17:04:54;;;;;;;0.10;0.10;;;7.70;75.90;;;;;;6073559;23;20463;-74
2024/02/23 17:07:20;;;;;;;0.10;0.10;;;7.70;76.30;;;;;;6073910;23;20005;-74
2024/02/23 17:09:46;;;;;;;0.10;0.10;;;7.70;76.40;;;;;;6073384;23;20010;-74
2024/02/23 17:12:18;;;;;;;0.10;0.10;;;7.60;76.60;;;;;;6073490;23;20003;-74
2024/02/23 17:14:44;;;;;;;0.10;0.10;;;7.60;76.60;;;;;;6073589;23;20339;-75
2024/02/23 17:17:10;;;;;;;0.10;0.10;;;7.60;76.90;;;;;;6073341;23;20029;-74
2024/02/23 17:19:36;;;;;;;0.10;0.10;;;7.50;76.60;;;;;;6047694;23;20018;-74
2024/02/23 17:22:01;;;;;;;0.10;0.10;;;7.40;76.70;;;;;;6073455;23;20050;-75
2024/02/23 17:24:27;;;;;;;0.10;0.10;;;7.30;77.00;;;;;;6073582;23;20006;-75
2024/02/23 17:26:53;;;;;;;0.10;0.10;;;7.30;77.30;;;;;;6047426;23;20435;-74
2024/02/23 17:29:18;;;;;;;0.10;0.10;;;7.20;77.30;;;;;;6073239;23;20007;-74
2024/02/23 17:31:44;;;;;;;0.10;0.10;;;7.20;77.40;;;;;;6072876;23;20037;-74
2024/02/23 17:34:11;;;;;;;0.10;0.10;;;7.10;77.80;;;;;;6072463;23;20460;-74
2024/02/23 17:36:42;;;;;;;0.10;0.10;;;7.10;77.90;;;;;;6072830;23;20081;-74
2024/02/23 17:39:08;;;;;;;0.10;0.10;;;7.00;78.40;;;;;;6073495;23;20010;-74
2024/02/23 17:41:34;;;;;;;0.10;0.10;;;7.10;78.90;;;;;;6047549;23;20003;-75
2024/02/23 17:43:59;;;;;;;0.10;0.10;;;7.10;78.30;;;;;;6047448;23;20090;-74
2024/02/23 17:46:25;;;;;;;0.10;0.10;;;7.20;78.20;;;;;;6071684;23;20010;-74
2024/02/23 17:48:51;;;;;;;0.10;0.10;;;7.20;78.10;;;;;;6073623;23;20003;-74
2024/02/23 17:51:17;;;;;;;0.10;0.10;;;7.20;78.20;;;;;;6072654;23;20006;-74
2024/02/23 17:53:43;;;;;;;0.10;0.10;;;7.20;78.10;;;;;;6073206;23;20003;-74
2024/02/23 17:56:09;;;;;;;0.10;0.10;;;7.20;78.10;;;;;;6072693;23;20010;-74
2024/02/23 17:58:36;;;;;;;0.10;0.10;;;7.00;78.10;;;;;;6072919;23;20026;-74
2024/02/23 18:01:02;;;;;;;0.10;0.10;;;7.00;78.30;;;;;;6047206;23;20015;-74
2024/02/23 18:03:28;;;;;;;0.10;0.10;;;7.00;78.20;;;;;;6072416;23;20096;-74
2024/02/23 18:05:53;;;;;;;0.10;0.10;;;7.00;78.30;;;;;;6072854;23;20011;-74
2024/02/23 18:08:19;;;;;;;0.10;0.10;;;6.80;78.20;;;;;;6047623;23;20003;-74
2024/02/23 18:10:44;;;;;;;0.10;0.10;;;6.80;78.40;;;;;;6072313;23;20019;-74
2024/02/23 18:13:13;;;;;;;0.10;0.10;;;6.70;78.70;;;;;;6073001;23;20002;-75
2024/02/23 18:15:39;;;;;;;0.10;0.10;;;6.70;79.00;;;;;;6072902;23;20074;-74
2024/02/23 18:18:04;;;;;;;0.10;0.10;;;6.60;79.00;;;;;;6047354;23;20424;-74
2024/02/23 18:20:30;;;;;;;0.10;0.10;;;6.60;79.10;;;;;;6072697;23;20007;-74
2024/02/23 18:22:56;;;;;;;0.10;0.10;;;6.40;79.30;;;;;;6047664;23;20003;-74